EDT,Max TemperatureF,Mean TemperatureF,Min TemperatureF,Max Dew PointF,MeanDew PointF,Min DewpointF,Max Humidity, Mean Humidity, Min Humidity, Max Sea Level PressureIn, Mean Sea Level PressureIn, Min Sea Level PressureIn, Max VisibilityMiles, Mean VisibilityMiles, Min VisibilityMiles, Max Wind SpeedMPH, Mean Wind SpeedMPH, Max Gust SpeedMPH,PrecipitationIn, CloudCover, Events, WindDirDegrees
2013-10-1,81,70,59,61,59,56,97,71,45,30.12,30.06,30.03,10,10,7,10,3,15,0.00,3,,209
2013-10-2,85,72,58,66,62,57,97,73,48,30.15,30.09,30.04,10,10,6,8,2,13,0.00,2,,164
2013-10-3,84,74,64,69,65,63,93,78,62,30.12,30.07,30.04,10,8,1,16,2,23,0.25,3,Rain-Thunderstorm,212
2013-10-4,84,73,62,67,64,63,100,76,51,30.14,30.09,30.05,10,6,0,10,3,24,0.00,2,Fog,197
2013-10-5,85,75,65,68,65,63,100,78,55,30.10,30.05,29.96,10,8,5,10,2,14,0.00,2,,170
2013-10-6,86,71,56,66,63,57,100,76,51,29.95,29.90,29.74,10,5,0,18,6,26,0.28,3,Fog-Rain,217
2013-10-7,66,56,46,54,50,43,100,72,44,30.14,29.94,29.85,10,8,2,10,5,16,0.41,6,Rain,241
2013-10-8,70,56,41,48,44,39,100,69,37,30.27,30.22,30.15,10,6,0,15,3,21,0.00,1,Fog,42
2013-10-9,73,58,42,48,45,42,100,68,35,30.25,30.20,30.16,10,8,0,10,2,12,0.00,0,Fog,54
2013-10-10,75,60,45,49,46,41,100,66,31,30.19,30.13,30.06,10,7,0,7,2,12,0.00,2,Fog,326
2013-10-11,78,63,47,58,52,45,100,73,45,30.09,30.04,29.99,10,9,1,12,4,17,0.00,3,,31
2013-10-12,63,61,58,57,56,55,93,86,78,30.14,30.08,30.03,10,10,9,7,1,18,T,7,,56
2013-10-13,74,65,56,61,58,55,100,82,64,30.26,30.21,30.14,10,7,1,9,3,12,T,6,Rain,10
2013-10-14,68,65,61,61,59,57,93,86,78,30.29,30.24,30.19,10,7,2,10,3,21,0.01,8,Rain,35
2013-10-15,75,67,58,61,59,57,100,82,64,30.18,30.09,29.97,10,6,0,7,2,10,0.00,3,Fog,135
2013-10-16,68,65,61,63,61,57,93,86,78,29.98,29.96,29.92,10,7,2,13,5,26,0.16,7,Rain,204
2013-10-17,61,56,50,59,54,49,97,93,89,30.00,29.90,29.84,10,5,1,13,4,21,0.41,8,Rain,317
2013-10-18,64,54,43,50,45,43,100,74,48,30.08,30.03,29.98,10,6,0,8,2,12,0.00,3,Fog,187
2013-10-19,56,47,38,50,41,37,100,86,72,30.04,29.93,29.85,10,5,0,20,4,31,0.04,3,Fog-Rain,179
2013-10-20,61,48,35,43,38,35,100,71,42,30.12,30.07,30.04,10,7,0,12,4,16,0.00,2,Fog,188
2013-10-21,69,52,35,43,39,33,100,64,28,30.09,30.01,29.92,10,10,7,14,4,20,0.00,2,,198
2013-10-22,56,49,42,46,37,29,92,65,38,30.06,29.96,29.87,10,10,7,15,4,20,0.09,4,Rain,313
2013-10-23,48,42,36,43,40,35,100,85,70,30.06,29.87,29.73,10,8,2,17,5,29,0.14,7,Rain,261
2013-10-24,49,43,37,36,34,28,92,69,46,30.25,30.14,30.06,10,10,7,13,4,20,0.03,8,Rain,241
2013-10-25,47,40,32,36,32,27,92,69,45,30.45,30.36,30.25,10,9,4,9,4,13,T,6,Rain,241
2013-10-26,53,42,30,30,28,24,92,64,35,30.33,30.16,30.00,10,10,10,16,6,24,0.00,4,,207
2013-10-27,62,48,34,40,35,32,96,66,36,30.12,30.08,30.04,10,10,5,12,2,17,0.00,1,,226
2013-10-28,61,48,35,50,43,35,100,81,61,30.28,30.21,30.12,10,9,5,5,1,7,0.00,6,,6
2013-10-29,60,52,43,52,48,42,100,88,75,30.36,30.30,30.23,10,4,0,5,1,7,T,4,Fog,44
2013-10-30,68,60,52,61,57,50,100,91,81,30.21,30.16,30.08,10,6,0,29,2,30,0.26,8,Fog-Rain,158
2013-10-31,72,67,61,59,56,53,97,75,53,30.05,29.83,29.48,10,10,7,21,9,32,0.02,6,Rain,179